sensor_id;sensor_type;location;lat;lon;timestamp;temperature;humidity
11107;DHT22;5607;48.302;14.294;2023-06-19T00:01:05;20.00;99.90
11107;DHT22;5607;48.302;14.294;2023-06-19T00:03:52;20.10;99.90
11107;DHT22;5607;48.302;14.294;2023-06-19T00:06:38;20.10;99.90
11107;DHT22;5607;48.302;14.294;2023-06-19T00:09:25;20.00;99.90
11107;DHT22;5607;48.302;14.294;2023-06-19T00:12:11;20.00;99.90
11107;DHT22;5607;48.302;14.294;2023-06-19T00:14:57;20.10;99.90
11107;DHT22;5607;48.302;14.294;2023-06-19T00:17:44;20.10;99.90
11107;DHT22;5607;48.302;14.294;2023-06-19T00:20:30;20.10;99.90
11107;DHT22;5607;48.302;14.294;2023-06-19T00:23:16;20.00;99.90
11107;DHT22;5607;48.302;14.294;2023-06-19T00:26:02;20.00;99.90
11107;DHT22;5607;48.302;14.294;2023-06-19T00:28:49;19.90;99.90
11107;DHT22;5607;48.302;14.294;2023-06-19T00:31:35;19.90;99.90
11107;DHT22;5607;48.302;14.294;2023-06-19T00:34:23;19.90;99.90
11107;DHT22;5607;48.302;14.294;2023-06-19T00:37:10;19.90;99.90
11107;DHT22;5607;48.302;14.294;2023-06-19T00:40:00;19.90;99.90
11107;DHT22;5607;48.302;14.294;2023-06-19T00:42:46;19.80;99.90
11107;DHT22;5607;48.302;14.294;2023-06-19T00:45:32;19.80;99.90
11107;DHT22;5607;48.302;14.294;2023-06-19T00:48:18;19.80;99.90
11107;DHT22;5607;48.302;14.294;2023-06-19T00:51:05;19.80;99.90
11107;DHT22;5607;48.302;14.294;2023-06-19T00:53:51;19.80;99.90
11107;DHT22;5607;48.302;14.294;2023-06-19T00:56:38;19.70;99.90
11107;DHT22;5607;48.302;14.294;2023-06-19T00:59:26;19.70;99.90
11107;DHT22;5607;48.302;14.294;2023-06-19T01:02:12;19.70;99.90
11107;DHT22;5607;48.302;14.294;2023-06-19T01:04:58;19.70;99.90
11107;DHT22;5607;48.302;14.294;2023-06-19T01:10:42;19.70;99.90
11107;DHT22;5607;48.302;14.294;2023-06-19T01:13:32;19.70;99.90
11107;DHT22;5607;48.302;14.294;2023-06-19T01:16:20;19.60;99.90
11107;DHT22;5607;48.302;14.294;2023-06-19T01:19:09;19.50;99.90
11107;DHT22;5607;48.302;14.294;2023-06-19T01:21:56;19.50;99.90
11107;DHT22;5607;48.302;14.294;2023-06-19T01:24:42;19.50;99.90
11107;DHT22;5607;48.302;14.294;2023-06-19T01:27:28;19.40;99.90
11107;DHT22;5607;48.302;14.294;2023-06-19T01:30:15;19.40;99.90
11107;DHT22;5607;48.302;14.294;2023-06-19T01:35:48;19.20;99.90
11107;DHT22;5607;48.302;14.294;2023-06-19T01:38:35;19.20;99.90
11107;DHT22;5607;48.302;14.294;2023-06-19T01:41:21;19.10;99.90
11107;DHT22;5607;48.302;14.294;2023-06-19T01:44:08;19.10;99.90
11107;DHT22;5607;48.302;14.294;2023-06-19T01:46:55;19.10;99.90
11107;DHT22;5607;48.302;14.294;2023-06-19T01:49:41;19.00;99.90
11107;DHT22;5607;48.302;14.294;2023-06-19T01:52:27;19.00;99.90
11107;DHT22;5607;48.302;14.294;2023-06-19T01:55:13;19.00;99.90
11107;DHT22;5607;48.302;14.294;2023-06-19T01:58:00;18.90;99.90
11107;DHT22;5607;48.302;14.294;2023-06-19T02:00:46;18.90;99.90
11107;DHT22;5607;48.302;14.294;2023-06-19T02:03:33;19.00;99.90
11107;DHT22;5607;48.302;14.294;2023-06-19T02:06:19;18.90;99.90
11107;DHT22;5607;48.302;14.294;2023-06-19T02:09:07;18.90;99.90
11107;DHT22;5607;48.302;14.294;2023-06-19T02:11:54;18.90;99.90
11107;DHT22;5607;48.302;14.294;2023-06-19T02:14:40;18.80;99.90
11107;DHT22;5607;48.302;14.294;2023-06-19T02:17:26;18.90;99.90
11107;DHT22;5607;48.302;14.294;2023-06-19T02:20:12;18.80;99.90
11107;DHT22;5607;48.302;14.294;2023-06-19T02:22:58;18.80;99.90
11107;DHT22;5607;48.302;14.294;2023-06-19T02:25:45;18.70;99.90
11107;DHT22;5607;48.302;14.294;2023-06-19T02:28:31;18.70;99.90
11107;DHT22;5607;48.302;14.294;2023-06-19T02:31:17;18.70;99.90
11107;DHT22;5607;48.302;14.294;2023-06-19T02:34:04;18.70;99.90
11107;DHT22;5607;48.302;14.294;2023-06-19T02:36:50;18.60;99.90
11107;DHT22;5607;48.302;14.294;2023-06-19T02:39:36;18.60;99.90
11107;DHT22;5607;48.302;14.294;2023-06-19T02:42:23;18.50;99.90
11107;DHT22;5607;48.302;14.294;2023-06-19T02:45:09;18.40;99.90
11107;DHT22;5607;48.302;14.294;2023-06-19T02:47:55;18.30;99.90
11107;DHT22;5607;48.302;14.294;2023-06-19T02:50:41;18.30;99.90
11107;DHT22;5607;48.302;14.294;2023-06-19T02:53:27;18.30;99.90
11107;DHT22;5607;48.302;14.294;2023-06-19T02:56:14;18.20;99.90
11107;DHT22;5607;48.302;14.294;2023-06-19T02:59:00;18.30;99.90
11107;DHT22;5607;48.302;14.294;2023-06-19T03:01:46;18.30;99.90
11107;DHT22;5607;48.302;14.294;2023-06-19T03:04:33;18.30;99.90
11107;DHT22;5607;48.302;14.294;2023-06-19T03:07:19;18.40;99.90
11107;DHT22;5607;48.302;14.294;2023-06-19T03:10:07;18.40;99.90
11107;DHT22;5607;48.302;14.294;2023-06-19T03:12:53;18.40;99.90
11107;DHT22;5607;48.302;14.294;2023-06-19T03:15:40;18.30;99.90
11107;DHT22;5607;48.302;14.294;2023-06-19T03:18:26;18.40;99.90
11107;DHT22;5607;48.302;14.294;2023-06-19T03:21:12;18.50;99.90
11107;DHT22;5607;48.302;14.294;2023-06-19T03:23:58;18.50;99.90
11107;DHT22;5607;48.302;14.294;2023-06-19T03:26:45;18.50;99.90
11107;DHT22;5607;48.302;14.294;2023-06-19T03:29:31;18.60;99.90
11107;DHT22;5607;48.302;14.294;2023-06-19T03:32:17;18.60;99.90
11107;DHT22;5607;48.302;14.294;2023-06-19T03:35:04;18.70;99.90
11107;DHT22;5607;48.302;14.294;2023-06-19T03:37:52;18.70;99.90
11107;DHT22;5607;48.302;14.294;2023-06-19T03:40:39;18.60;99.90
11107;DHT22;5607;48.302;14.294;2023-06-19T03:43:25;18.60;99.90
11107;DHT22;5607;48.302;14.294;2023-06-19T03:46:12;18.60;99.90
11107;DHT22;5607;48.302;14.294;2023-06-19T03:48:58;18.50;99.90
11107;DHT22;5607;48.302;14.294;2023-06-19T03:51:45;18.50;99.90
11107;DHT22;5607;48.302;14.294;2023-06-19T03:54:31;18.50;99.90
11107;DHT22;5607;48.302;14.294;2023-06-19T03:57:18;18.50;99.90
11107;DHT22;5607;48.302;14.294;2023-06-19T04:00:06;18.40;99.90
11107;DHT22;5607;48.302;14.294;2023-06-19T04:02:57;18.40;99.90
11107;DHT22;5607;48.302;14.294;2023-06-19T04:05:43;18.40;99.90
11107;DHT22;5607;48.302;14.294;2023-06-19T04:08:29;18.40;99.90
11107;DHT22;5607;48.302;14.294;2023-06-19T04:11:16;18.40;99.90
11107;DHT22;5607;48.302;14.294;2023-06-19T04:14:02;18.40;99.90
11107;DHT22;5607;48.302;14.294;2023-06-19T04:16:48;18.40;99.90
11107;DHT22;5607;48.302;14.294;2023-06-19T04:19:34;18.40;99.90
11107;DHT22;5607;48.302;14.294;2023-06-19T04:22:21;18.40;99.90
11107;DHT22;5607;48.302;14.294;2023-06-19T04:25:08;18.50;99.90
11107;DHT22;5607;48.302;14.294;2023-06-19T04:27:55;18.70;99.90
11107;DHT22;5607;48.302;14.294;2023-06-19T04:30:42;18.90;99.90
11107;DHT22;5607;48.302;14.294;2023-06-19T04:33:29;19.10;99.90
11107;DHT22;5607;48.302;14.294;2023-06-19T04:36:15;19.20;99.90
11107;DHT22;5607;48.302;14.294;2023-06-19T04:39:02;19.20;99.90
11107;DHT22;5607;48.302;14.294;2023-06-19T04:41:48;19.30;99.90
11107;DHT22;5607;48.302;14.294;2023-06-19T04:44:35;19.40;99.90
11107;DHT22;5607;48.302;14.294;2023-06-19T04:47:22;19.50;99.90
11107;DHT22;5607;48.302;14.294;2023-06-19T04:50:08;19.70;99.90
11107;DHT22;5607;48.302;14.294;2023-06-19T04:52:55;19.70;99.90
11107;DHT22;5607;48.302;14.294;2023-06-19T04:55:41;19.70;99.90
11107;DHT22;5607;48.302;14.294;2023-06-19T04:58:27;19.80;99.90
11107;DHT22;5607;48.302;14.294;2023-06-19T05:01:14;19.90;99.90
11107;DHT22;5607;48.302;14.294;2023-06-19T05:04:01;20.00;99.90
11107;DHT22;5607;48.302;14.294;2023-06-19T05:06:47;20.00;99.90
11107;DHT22;5607;48.302;14.294;2023-06-19T05:09:33;20.20;99.90
11107;DHT22;5607;48.302;14.294;2023-06-19T05:12:21;20.30;99.90
11107;DHT22;5607;48.302;14.294;2023-06-19T05:15:08;20.40;99.90
11107;DHT22;5607;48.302;14.294;2023-06-19T05:17:54;20.50;99.90
11107;DHT22;5607;48.302;14.294;2023-06-19T05:20:40;20.60;99.90
11107;DHT22;5607;48.302;14.294;2023-06-19T05:23:27;20.70;99.90
11107;DHT22;5607;48.302;14.294;2023-06-19T05:26:13;20.60;99.90
11107;DHT22;5607;48.302;14.294;2023-06-19T05:28:59;20.70;99.90
11107;DHT22;5607;48.302;14.294;2023-06-19T05:31:46;20.60;99.90
11107;DHT22;5607;48.302;14.294;2023-06-19T05:34:32;20.60;99.90
11107;DHT22;5607;48.302;14.294;2023-06-19T05:37:18;20.60;99.90
11107;DHT22;5607;48.302;14.294;2023-06-19T05:40:05;20.60;99.90
11107;DHT22;5607;48.302;14.294;2023-06-19T05:42:52;20.50;99.90
11107;DHT22;5607;48.302;14.294;2023-06-19T05:45:39;20.70;99.90
11107;DHT22;5607;48.302;14.294;2023-06-19T05:48:25;20.90;99.90
11107;DHT22;5607;48.302;14.294;2023-06-19T05:51:12;20.90;99.90
11107;DHT22;5607;48.302;14.294;2023-06-19T05:53:58;20.90;99.90
11107;DHT22;5607;48.302;14.294;2023-06-19T05:56:49;21.10;99.90
11107;DHT22;5607;48.302;14.294;2023-06-19T05:59:36;21.20;99.90
11107;DHT22;5607;48.302;14.294;2023-06-19T06:02:22;21.40;99.90
11107;DHT22;5607;48.302;14.294;2023-06-19T06:05:08;21.70;99.90
11107;DHT22;5607;48.302;14.294;2023-06-19T06:07:55;22.10;99.90
11107;DHT22;5607;48.302;14.294;2023-06-19T06:10:42;22.30;99.90
11107;DHT22;5607;48.302;14.294;2023-06-19T06:13:28;22.50;99.90
11107;DHT22;5607;48.302;14.294;2023-06-19T06:16:15;22.70;99.90
11107;DHT22;5607;48.302;14.294;2023-06-19T06:19:01;22.90;99.90
11107;DHT22;5607;48.302;14.294;2023-06-19T06:21:48;23.10;99.90
11107;DHT22;5607;48.302;14.294;2023-06-19T06:24:34;23.10;99.90
11107;DHT22;5607;48.302;14.294;2023-06-19T06:27:20;23.20;99.90
11107;DHT22;5607;48.302;14.294;2023-06-19T06:30:06;23.40;99.90
11107;DHT22;5607;48.302;14.294;2023-06-19T06:32:54;23.60;99.90
11107;DHT22;5607;48.302;14.294;2023-06-19T06:35:40;23.80;99.90
11107;DHT22;5607;48.302;14.294;2023-06-19T06:41:31;24.30;99.90
11107;DHT22;5607;48.302;14.294;2023-06-19T06:44:18;24.30;99.90
11107;DHT22;5607;48.302;14.294;2023-06-19T06:47:04;24.30;99.90
11107;DHT22;5607;48.302;14.294;2023-06-19T06:49:50;24.40;99.90
11107;DHT22;5607;48.302;14.294;2023-06-19T06:52:37;24.40;99.90
11107;DHT22;5607;48.302;14.294;2023-06-19T06:55:23;24.30;99.90
11107;DHT22;5607;48.302;14.294;2023-06-19T06:58:10;24.20;99.90
11107;DHT22;5607;48.302;14.294;2023-06-19T07:00:58;24.20;99.90
11107;DHT22;5607;48.302;14.294;2023-06-19T07:03:44;24.30;99.90
11107;DHT22;5607;48.302;14.294;2023-06-19T07:06:30;24.30;99.90
11107;DHT22;5607;48.302;14.294;2023-06-19T07:09:16;24.40;99.90
11107;DHT22;5607;48.302;14.294;2023-06-19T07:12:03;24.50;99.90
11107;DHT22;5607;48.302;14.294;2023-06-19T07:14:53;24.60;99.90
11107;DHT22;5607;48.302;14.294;2023-06-19T07:17:39;24.60;99.90
11107;DHT22;5607;48.302;14.294;2023-06-19T07:20:25;24.60;99.90
11107;DHT22;5607;48.302;14.294;2023-06-19T07:23:11;24.70;99.90
11107;DHT22;5607;48.302;14.294;2023-06-19T07:25:58;24.60;99.90
11107;DHT22;5607;48.302;14.294;2023-06-19T07:28:44;24.40;99.90
11107;DHT22;5607;48.302;14.294;2023-06-19T07:31:30;24.20;99.90
11107;DHT22;5607;48.302;14.294;2023-06-19T07:34:16;24.10;99.90
11107;DHT22;5607;48.302;14.294;2023-06-19T07:37:02;24.00;99.90
11107;DHT22;5607;48.302;14.294;2023-06-19T07:39:49;24.00;99.90
11107;DHT22;5607;48.302;14.294;2023-06-19T07:42:36;24.00;99.90
11107;DHT22;5607;48.302;14.294;2023-06-19T07:45:22;24.00;99.90
11107;DHT22;5607;48.302;14.294;2023-06-19T07:48:09;24.10;99.90
11107;DHT22;5607;48.302;14.294;2023-06-19T07:50:55;24.30;99.90
11107;DHT22;5607;48.302;14.294;2023-06-19T07:53:42;24.40;99.90
11107;DHT22;5607;48.302;14.294;2023-06-19T07:56:29;24.40;99.90
11107;DHT22;5607;48.302;14.294;2023-06-19T07:59:18;24.50;99.90
11107;DHT22;5607;48.302;14.294;2023-06-19T08:02:04;24.30;99.90
11107;DHT22;5607;48.302;14.294;2023-06-19T08:04:52;23.90;99.90
11107;DHT22;5607;48.302;14.294;2023-06-19T08:07:38;23.60;99.90
11107;DHT22;5607;48.302;14.294;2023-06-19T08:10:25;23.80;99.90
11107;DHT22;5607;48.302;14.294;2023-06-19T08:13:11;23.70;99.90
11107;DHT22;5607;48.302;14.294;2023-06-19T08:15:58;23.90;99.90
11107;DHT22;5607;48.302;14.294;2023-06-19T08:18:44;24.20;99.90
11107;DHT22;5607;48.302;14.294;2023-06-19T08:21:31;24.40;99.90
11107;DHT22;5607;48.302;14.294;2023-06-19T08:24:17;24.40;99.90
11107;DHT22;5607;48.302;14.294;2023-06-19T08:27:03;24.60;99.90
11107;DHT22;5607;48.302;14.294;2023-06-19T08:29:50;24.70;99.90
11107;DHT22;5607;48.302;14.294;2023-06-19T08:32:36;24.80;99.90
11107;DHT22;5607;48.302;14.294;2023-06-19T08:35:22;24.80;99.90
11107;DHT22;5607;48.302;14.294;2023-06-19T08:38:09;24.90;99.90
11107;DHT22;5607;48.302;14.294;2023-06-19T08:40:55;24.80;99.90
11107;DHT22;5607;48.302;14.294;2023-06-19T08:43:41;25.00;99.90
11107;DHT22;5607;48.302;14.294;2023-06-19T08:46:28;25.10;99.90
11107;DHT22;5607;48.302;14.294;2023-06-19T08:49:14;25.20;99.90
11107;DHT22;5607;48.302;14.294;2023-06-19T08:52:01;25.10;99.90
11107;DHT22;5607;48.302;14.294;2023-06-19T08:54:48;25.10;99.90
11107;DHT22;5607;48.302;14.294;2023-06-19T08:57:35;25.10;99.90
11107;DHT22;5607;48.302;14.294;2023-06-19T09:00:28;25.00;99.90
11107;DHT22;5607;48.302;14.294;2023-06-19T09:03:24;25.10;99.90
11107;DHT22;5607;48.302;14.294;2023-06-19T09:06:11;25.20;99.90
11107;DHT22;5607;48.302;14.294;2023-06-19T09:08:57;25.40;99.90
11107;DHT22;5607;48.302;14.294;2023-06-19T09:11:54;25.80;99.90
11107;DHT22;5607;48.302;14.294;2023-06-19T09:14:44;26.00;99.90
11107;DHT22;5607;48.302;14.294;2023-06-19T09:17:30;26.30;99.90
11107;DHT22;5607;48.302;14.294;2023-06-19T09:20:25;26.30;99.90
11107;DHT22;5607;48.302;14.294;2023-06-19T09:23:11;26.50;99.90
11107;DHT22;5607;48.302;14.294;2023-06-19T09:25:58;26.70;99.90
11107;DHT22;5607;48.302;14.294;2023-06-19T09:28:44;27.00;99.90
11107;DHT22;5607;48.302;14.294;2023-06-19T09:31:33;27.20;99.90
11107;DHT22;5607;48.302;14.294;2023-06-19T09:34:19;27.20;99.90
11107;DHT22;5607;48.302;14.294;2023-06-19T09:37:06;27.20;99.90
11107;DHT22;5607;48.302;14.294;2023-06-19T09:39:56;27.40;99.90
11107;DHT22;5607;48.302;14.294;2023-06-19T09:42:43;27.70;99.90
11107;DHT22;5607;48.302;14.294;2023-06-19T09:45:29;27.60;99.90
11107;DHT22;5607;48.302;14.294;2023-06-19T09:48:18;27.60;99.90
11107;DHT22;5607;48.302;14.294;2023-06-19T09:53:54;27.50;99.90
11107;DHT22;5607;48.302;14.294;2023-06-19T09:56:44;27.30;99.90
11107;DHT22;5607;48.302;14.294;2023-06-19T09:59:30;27.30;99.90
11107;DHT22;5607;48.302;14.294;2023-06-19T10:02:17;27.50;99.90
11107;DHT22;5607;48.302;14.294;2023-06-19T10:05:05;27.60;99.90
11107;DHT22;5607;48.302;14.294;2023-06-19T10:07:54;27.60;99.90
11107;DHT22;5607;48.302;14.294;2023-06-19T10:10:46;27.70;99.90
11107;DHT22;5607;48.302;14.294;2023-06-19T10:13:33;27.50;99.90
11107;DHT22;5607;48.302;14.294;2023-06-19T10:16:21;27.30;99.90
11107;DHT22;5607;48.302;14.294;2023-06-19T10:19:14;27.30;99.90
11107;DHT22;5607;48.302;14.294;2023-06-19T10:22:00;27.40;99.90
11107;DHT22;5607;48.302;14.294;2023-06-19T10:24:50;27.50;99.90
11107;DHT22;5607;48.302;14.294;2023-06-19T10:27:37;27.70;99.90
11107;DHT22;5607;48.302;14.294;2023-06-19T10:30:23;27.90;99.90
11107;DHT22;5607;48.302;14.294;2023-06-19T10:33:10;28.00;99.90
11107;DHT22;5607;48.302;14.294;2023-06-19T10:35:56;27.90;99.90
11107;DHT22;5607;48.302;14.294;2023-06-19T10:38:42;27.90;99.90
11107;DHT22;5607;48.302;14.294;2023-06-19T10:41:33;27.90;99.90
11107;DHT22;5607;48.302;14.294;2023-06-19T10:44:19;28.10;99.90
11107;DHT22;5607;48.302;14.294;2023-06-19T10:47:09;28.20;99.90
11107;DHT22;5607;48.302;14.294;2023-06-19T10:49:55;28.30;99.90
11107;DHT22;5607;48.302;14.294;2023-06-19T10:52:44;28.10;99.90
11107;DHT22;5607;48.302;14.294;2023-06-19T10:55:30;28.10;99.90
11107;DHT22;5607;48.302;14.294;2023-06-19T10:58:16;28.30;99.90
11107;DHT22;5607;48.302;14.294;2023-06-19T11:01:04;28.70;99.90
11107;DHT22;5607;48.302;14.294;2023-06-19T11:03:50;28.80;99.90
11107;DHT22;5607;48.302;14.294;2023-06-19T11:06:38;28.90;99.90
11107;DHT22;5607;48.302;14.294;2023-06-19T11:09:24;29.10;99.90
11107;DHT22;5607;48.302;14.294;2023-06-19T11:12:18;29.20;99.90
11107;DHT22;5607;48.302;14.294;2023-06-19T11:15:04;29.40;99.90
11107;DHT22;5607;48.302;14.294;2023-06-19T11:17:51;29.50;99.90
11107;DHT22;5607;48.302;14.294;2023-06-19T11:20:44;29.50;99.90
11107;DHT22;5607;48.302;14.294;2023-06-19T11:23:31;29.60;99.90
11107;DHT22;5607;48.302;14.294;2023-06-19T11:26:17;29.60;99.90
11107;DHT22;5607;48.302;14.294;2023-06-19T11:32:36;30.00;99.90
11107;DHT22;5607;48.302;14.294;2023-06-19T11:35:15;30.10;97.30
11107;DHT22;5607;48.302;14.294;2023-06-19T11:38:02;30.30;99.90
11107;DHT22;5607;48.302;14.294;2023-06-19T11:40:48;30.40;99.90
11107;DHT22;5607;48.302;14.294;2023-06-19T11:43:35;30.50;99.90
11107;DHT22;5607;48.302;14.294;2023-06-19T11:46:27;30.50;99.90
11107;DHT22;5607;48.302;14.294;2023-06-19T11:49:14;30.50;99.90
11107;DHT22;5607;48.302;14.294;2023-06-19T11:52:02;30.30;99.90
11107;DHT22;5607;48.302;14.294;2023-06-19T11:54:49;30.20;99.90
11107;DHT22;5607;48.302;14.294;2023-06-19T11:57:35;29.70;99.90
11107;DHT22;5607;48.302;14.294;2023-06-19T12:00:21;29.50;99.90
11107;DHT22;5607;48.302;14.294;2023-06-19T12:03:08;29.50;99.90
11107;DHT22;5607;48.302;14.294;2023-06-19T12:05:54;30.00;99.90
11107;DHT22;5607;48.302;14.294;2023-06-19T12:08:40;30.50;99.90
11107;DHT22;5607;48.302;14.294;2023-06-19T12:11:26;30.60;99.90
11107;DHT22;5607;48.302;14.294;2023-06-19T12:14:13;30.40;99.90
11107;DHT22;5607;48.302;14.294;2023-06-19T12:16:59;30.20;99.90
11107;DHT22;5607;48.302;14.294;2023-06-19T12:19:45;30.20;99.90
11107;DHT22;5607;48.302;14.294;2023-06-19T12:22:32;30.30;99.90
11107;DHT22;5607;48.302;14.294;2023-06-19T12:25:19;30.40;99.90
11107;DHT22;5607;48.302;14.294;2023-06-19T12:28:06;30.70;99.90
11107;DHT22;5607;48.302;14.294;2023-06-19T12:30:54;30.70;99.90
11107;DHT22;5607;48.302;14.294;2023-06-19T12:33:42;30.40;99.90
11107;DHT22;5607;48.302;14.294;2023-06-19T12:36:29;30.50;99.90
11107;DHT22;5607;48.302;14.294;2023-06-19T12:39:19;30.90;99.90
11107;DHT22;5607;48.302;14.294;2023-06-19T12:42:05;31.20;99.90
11107;DHT22;5607;48.302;14.294;2023-06-19T12:44:52;31.60;99.90
11107;DHT22;5607;48.302;14.294;2023-06-19T12:47:38;31.80;99.90
11107;DHT22;5607;48.302;14.294;2023-06-19T12:50:24;32.20;99.90
11107;DHT22;5607;48.302;14.294;2023-06-19T12:53:10;32.30;99.90
11107;DHT22;5607;48.302;14.294;2023-06-19T12:55:57;32.20;97.70
11107;DHT22;5607;48.302;14.294;2023-06-19T12:58:44;32.20;99.90
11107;DHT22;5607;48.302;14.294;2023-06-19T13:01:30;32.30;99.90
11107;DHT22;5607;48.302;14.294;2023-06-19T13:04:16;32.00;99.90
11107;DHT22;5607;48.302;14.294;2023-06-19T13:07:02;32.10;99.90
11107;DHT22;5607;48.302;14.294;2023-06-19T13:09:49;32.20;99.90
11107;DHT22;5607;48.302;14.294;2023-06-19T13:12:35;32.40;94.40
11107;DHT22;5607;48.302;14.294;2023-06-19T13:15:21;32.60;94.80
11107;DHT22;5607;48.302;14.294;2023-06-19T13:18:08;32.60;98.30
11107;DHT22;5607;48.302;14.294;2023-06-19T13:20:54;32.70;92.00
11107;DHT22;5607;48.302;14.294;2023-06-19T13:23:40;32.50;95.60
11107;DHT22;5607;48.302;14.294;2023-06-19T13:26:27;32.60;98.40
11107;DHT22;5607;48.302;14.294;2023-06-19T13:29:13;33.20;97.50
11107;DHT22;5607;48.302;14.294;2023-06-19T13:31:59;33.20;87.20
11107;DHT22;5607;48.302;14.294;2023-06-19T13:34:45;34.20;96.30
11107;DHT22;5607;48.302;14.294;2023-06-19T13:37:33;34.20;99.90
11107;DHT22;5607;48.302;14.294;2023-06-19T13:40:19;35.30;89.40
11107;DHT22;5607;48.302;14.294;2023-06-19T13:43:06;37.10;86.20
11107;DHT22;5607;48.302;14.294;2023-06-19T13:45:52;38.40;99.90
11107;DHT22;5607;48.302;14.294;2023-06-19T13:48:38;39.70;94.30
11107;DHT22;5607;48.302;14.294;2023-06-19T13:51:25;40.60;87.70
11107;DHT22;5607;48.302;14.294;2023-06-19T13:54:11;40.40;85.00
11107;DHT22;5607;48.302;14.294;2023-06-19T13:56:59;39.50;99.90
11107;DHT22;5607;48.302;14.294;2023-06-19T13:59:45;38.40;99.10
11107;DHT22;5607;48.302;14.294;2023-06-19T14:02:31;38.20;99.90
11107;DHT22;5607;48.302;14.294;2023-06-19T14:05:17;40.80;99.90
11107;DHT22;5607;48.302;14.294;2023-06-19T14:08:04;44.00;92.90
11107;DHT22;5607;48.302;14.294;2023-06-19T14:10:50;46.60;87.60
11107;DHT22;5607;48.302;14.294;2023-06-19T14:13:37;46.60;91.60
11107;DHT22;5607;48.302;14.294;2023-06-19T14:16:23;46.40;92.10
11107;DHT22;5607;48.302;14.294;2023-06-19T14:19:09;46.50;99.90
11107;DHT22;5607;48.302;14.294;2023-06-19T14:21:55;47.40;99.90
11107;DHT22;5607;48.302;14.294;2023-06-19T14:24:42;48.70;99.90
11107;DHT22;5607;48.302;14.294;2023-06-19T14:27:28;48.30;99.90
11107;DHT22;5607;48.302;14.294;2023-06-19T14:30:14;47.60;99.90
11107;DHT22;5607;48.302;14.294;2023-06-19T14:33:01;47.30;99.90
11107;DHT22;5607;48.302;14.294;2023-06-19T14:35:47;46.50;99.90
11107;DHT22;5607;48.302;14.294;2023-06-19T14:38:34;47.00;99.90
11107;DHT22;5607;48.302;14.294;2023-06-19T14:41:20;47.90;99.90
11107;DHT22;5607;48.302;14.294;2023-06-19T14:44:06;48.30;99.90
11107;DHT22;5607;48.302;14.294;2023-06-19T14:46:52;49.60;99.90
11107;DHT22;5607;48.302;14.294;2023-06-19T14:49:39;49.40;99.90
11107;DHT22;5607;48.302;14.294;2023-06-19T14:52:25;49.50;99.90
11107;DHT22;5607;48.302;14.294;2023-06-19T14:55:11;49.20;99.90
11107;DHT22;5607;48.302;14.294;2023-06-19T14:57:58;48.80;99.90
11107;DHT22;5607;48.302;14.294;2023-06-19T15:00:44;48.20;99.90
11107;DHT22;5607;48.302;14.294;2023-06-19T15:03:30;47.80;99.90
11107;DHT22;5607;48.302;14.294;2023-06-19T15:06:16;48.40;99.90
11107;DHT22;5607;48.302;14.294;2023-06-19T15:09:03;48.40;99.90
11107;DHT22;5607;48.302;14.294;2023-06-19T15:11:49;49.20;99.90
11107;DHT22;5607;48.302;14.294;2023-06-19T15:14:35;50.60;99.90
11107;DHT22;5607;48.302;14.294;2023-06-19T15:17:24;50.50;99.90
11107;DHT22;5607;48.302;14.294;2023-06-19T15:20:10;50.10;99.90
11107;DHT22;5607;48.302;14.294;2023-06-19T15:22:56;50.00;99.90
11107;DHT22;5607;48.302;14.294;2023-06-19T15:25:42;48.10;99.90
11107;DHT22;5607;48.302;14.294;2023-06-19T15:28:29;48.00;99.90
11107;DHT22;5607;48.302;14.294;2023-06-19T15:31:15;46.40;99.90
11107;DHT22;5607;48.302;14.294;2023-06-19T15:34:02;46.70;99.90
11107;DHT22;5607;48.302;14.294;2023-06-19T15:36:48;48.10;99.90
11107;DHT22;5607;48.302;14.294;2023-06-19T15:39:36;49.20;99.90
11107;DHT22;5607;48.302;14.294;2023-06-19T15:42:22;50.40;99.90
11107;DHT22;5607;48.302;14.294;2023-06-19T15:45:09;50.90;99.90
11107;DHT22;5607;48.302;14.294;2023-06-19T15:47:57;51.10;99.90
11107;DHT22;5607;48.302;14.294;2023-06-19T15:50:43;51.70;99.90
11107;DHT22;5607;48.302;14.294;2023-06-19T15:53:29;51.90;99.90
11107;DHT22;5607;48.302;14.294;2023-06-19T15:56:15;51.80;99.90
11107;DHT22;5607;48.302;14.294;2023-06-19T15:59:02;51.40;99.90
11107;DHT22;5607;48.302;14.294;2023-06-19T16:01:48;50.30;99.90
11107;DHT22;5607;48.302;14.294;2023-06-19T16:04:34;49.30;99.90
11107;DHT22;5607;48.302;14.294;2023-06-19T16:07:20;49.20;99.90
11107;DHT22;5607;48.302;14.294;2023-06-19T16:10:07;49.20;99.90
11107;DHT22;5607;48.302;14.294;2023-06-19T16:12:53;47.70;99.90
11107;DHT22;5607;48.302;14.294;2023-06-19T16:15:40;44.80;99.90
11107;DHT22;5607;48.302;14.294;2023-06-19T16:18:27;41.90;99.90
11107;DHT22;5607;48.302;14.294;2023-06-19T16:21:13;39.90;99.90
11107;DHT22;5607;48.302;14.294;2023-06-19T16:24:01;38.70;99.90
11107;DHT22;5607;48.302;14.294;2023-06-19T16:26:47;37.10;99.90
11107;DHT22;5607;48.302;14.294;2023-06-19T16:29:35;36.20;99.90
11107;DHT22;5607;48.302;14.294;2023-06-19T16:32:22;35.60;99.90
11107;DHT22;5607;48.302;14.294;2023-06-19T16:35:08;35.20;99.90
11107;DHT22;5607;48.302;14.294;2023-06-19T16:37:55;34.80;99.90
11107;DHT22;5607;48.302;14.294;2023-06-19T16:40:42;34.60;99.90
11107;DHT22;5607;48.302;14.294;2023-06-19T16:43:29;34.30;99.90
11107;DHT22;5607;48.302;14.294;2023-06-19T16:46:15;34.00;99.90
11107;DHT22;5607;48.302;14.294;2023-06-19T16:49:01;33.80;99.90
11107;DHT22;5607;48.302;14.294;2023-06-19T16:51:48;33.50;99.90
11107;DHT22;5607;48.302;14.294;2023-06-19T16:54:34;33.30;99.90
11107;DHT22;5607;48.302;14.294;2023-06-19T16:57:20;33.10;99.90
11107;DHT22;5607;48.302;14.294;2023-06-19T17:00:07;33.00;99.90
11107;DHT22;5607;48.302;14.294;2023-06-19T17:02:57;32.90;99.90
11107;DHT22;5607;48.302;14.294;2023-06-19T17:05:43;32.80;99.90
11107;DHT22;5607;48.302;14.294;2023-06-19T17:08:31;32.80;99.90
11107;DHT22;5607;48.302;14.294;2023-06-19T17:11:17;32.70;99.90
11107;DHT22;5607;48.302;14.294;2023-06-19T17:14:03;32.60;99.90
11107;DHT22;5607;48.302;14.294;2023-06-19T17:16:50;32.50;99.90
11107;DHT22;5607;48.302;14.294;2023-06-19T17:19:37;32.40;99.90
11107;DHT22;5607;48.302;14.294;2023-06-19T17:22:24;32.30;99.90
11107;DHT22;5607;48.302;14.294;2023-06-19T17:25:10;32.10;99.90
11107;DHT22;5607;48.302;14.294;2023-06-19T17:27:56;31.90;99.90
11107;DHT22;5607;48.302;14.294;2023-06-19T17:30:42;31.80;99.90
11107;DHT22;5607;48.302;14.294;2023-06-19T17:33:29;31.60;99.90
11107;DHT22;5607;48.302;14.294;2023-06-19T17:36:15;31.60;99.90
11107;DHT22;5607;48.302;14.294;2023-06-19T17:39:01;31.50;99.90
11107;DHT22;5607;48.302;14.294;2023-06-19T17:41:49;31.30;99.90
11107;DHT22;5607;48.302;14.294;2023-06-19T17:44:35;31.30;99.90
11107;DHT22;5607;48.302;14.294;2023-06-19T17:47:21;31.20;99.90